Time;durP1;ratioP1;P1;durP2;ratioP2;P2;SDS_P1;SDS_P2;PMS_P1;PMS_P2;Temp;Humidity;BMP_temperature;BMP_pressure;BME280_temperature;BME280_humidity;BME280_pressure;Samples;Min_cycle;Max_cycle;Signal;HPM_P1;HPM_P2
2022/04/03 00:01:12;;;;;;;4.03;1.83;;;;;;;7.93;64.69;94096.50;6247130;22;20039;-83
2022/04/03 00:03:37;;;;;;;3.33;1.65;;;;;;;7.67;64.78;94030.81;6246314;23;20410;-84
2022/04/03 00:06:03;;;;;;;5.88;1.50;;;;;;;7.25;65.36;93936.59;6247197;23;20015;-83
2022/04/03 00:08:31;;;;;;;4.28;1.90;;;;;;;8.05;65.42;94070.44;6245339;23;20039;-84
2022/04/03 00:10:56;;;;;;;5.15;1.83;;;;;;;7.67;64.13;93983.31;6247153;23;20320;-83
2022/04/03 00:13:22;;;;;;;4.88;1.50;;;;;;;8.36;65.76;94086.72;6245399;23;20015;-84
2022/04/03 00:15:48;;;;;;;5.00;2.15;;;;;;;8.79;65.26;94141.03;6245786;23;20224;-84
2022/04/03 00:18:14;;;;;;;8.50;2.28;;;;;;;8.89;65.50;94151.47;6245057;23;20004;-84
2022/04/03 00:20:41;;;;;;;7.47;2.17;;;;;;;8.82;65.79;94114.03;6245064;23;20004;-83
2022/04/03 00:23:07;;;;;;;8.07;2.10;;;;;;;7.46;66.26;93928.44;6247310;22;20012;-84
2022/04/03 00:25:33;;;;;;;9.27;2.15;;;;;;;8.62;66.47;94140.75;6246021;23;20068;-83
2022/04/03 00:27:59;;;;;;;3.45;1.70;;;;;;;8.48;65.15;94143.31;6246313;23;20438;-84
2022/04/03 00:30:25;;;;;;;6.22;1.83;;;;;;;7.96;68.46;94075.56;6245663;23;20016;-84
2022/04/03 00:32:50;;;;;;;2.83;1.60;;;;;;;7.76;63.73;94067.91;6247928;22;20008;-83
2022/04/03 00:35:16;;;;;;;5.18;1.27;;;;;;;8.26;61.61;94139.63;6246237;23;20072;-84
2022/04/03 00:37:42;;;;;;;7.15;1.58;;;;;;;6.90;63.06;93902.75;6246285;23;20011;-83
2022/04/03 00:40:09;;;;;;;3.83;1.48;;;;;;;8.00;62.70;94067.88;6244889;23;20078;-83
2022/04/03 00:42:35;;;;;;;4.97;1.70;;;;;;;8.56;65.18;94126.03;6248460;22;20010;-84
2022/04/03 00:45:02;;;;;;;4.00;1.50;;;;;;;8.13;62.93;94051.34;6248244;22;20031;-83
2022/04/03 00:47:28;;;;;;;2.55;1.52;;;;;;;7.58;61.27;94003.47;6250169;23;20004;-83
2022/04/03 00:49:54;;;;;;;3.47;2.40;;;;;;;7.88;62.41;94054.28;6248839;23;20091;-83
2022/04/03 00:52:20;;;;;;;10.05;2.30;;;;;;;7.65;60.17;94043.47;6250366;22;20115;-83
2022/04/03 00:54:47;;;;;;;7.55;2.33;;;;;;;7.09;61.86;93914.16;6250626;22;20015;-83
2022/04/03 00:57:13;;;;;;;6.63;2.30;;;;;;;7.96;63.56;94057.09;6248848;23;20048;-83
2022/04/03 00:59:41;;;;;;;5.15;2.42;;;;;;;8.20;61.98;94077.38;6250158;23;20004;-84
2022/04/03 01:02:07;;;;;;;7.35;2.60;;;;;;;8.21;61.61;94119.38;6250449;22;20008;-83
2022/04/03 01:04:32;;;;;;;8.50;4.07;;;;;;;7.61;62.15;94039.84;6249045;23;20424;-84
2022/04/03 01:06:59;;;;;;;8.73;3.00;;;;;;;8.12;64.15;94137.69;6248497;23;20012;-84
2022/04/03 01:09:24;;;;;;;10.00;2.50;;;;;;;7.90;63.61;94121.59;6248755;23;20004;-84
2022/04/03 01:11:50;;;;;;;10.13;2.45;;;;;;;7.64;63.14;94144.81;6244169;22;20011;-83
2022/04/03 01:14:33;;;;;;;8.18;1.77;;;;;;;6.84;62.24;94088.34;6241682;23;20328;-83
2022/04/03 01:16:59;;;;;;;3.20;1.58;;;;;;;6.10;61.58;93984.84;6243559;22;20359;-83
2022/04/03 01:19:24;;;;;;;6.75;1.85;;;;;;;6.49;62.20;94057.78;6243652;22;19997;-83
2022/04/03 01:21:51;;;;;;;5.82;2.30;;;;;;;6.73;62.35;94134.28;6243523;22;20008;-82
2022/04/03 01:24:17;;;;;;;4.93;1.75;;;;;;;5.78;60.66;94000.31;6241692;23;20004;-82
2022/04/03 01:26:43;;;;;;;5.80;2.00;;;;;;;5.85;61.99;94021.06;6244487;22;20023;-83
2022/04/03 01:29:09;;;;;;;4.30;1.42;;;;;;;6.65;62.29;94134.84;6243765;22;20012;-82
2022/04/03 01:31:35;;;;;;;5.65;1.83;;;;;;;5.40;59.59;93971.06;6242324;23;20036;-82
2022/04/03 01:34:00;;;;;;;5.15;1.50;;;;;;;5.59;61.29;94013.28;6243202;22;20455;-82
2022/04/03 01:36:25;;;;;;;6.10;1.48;;;;;;;6.36;62.87;94146.09;6243626;22;20008;-83
2022/04/03 01:38:51;;;;;;;5.85;1.60;;;;;;;5.21;62.29;93953.50;6243939;23;20018;-83
2022/04/03 01:41:16;;;;;;;5.45;1.73;;;;;;;5.69;62.18;94039.56;6244207;23;20014;-83
2022/04/03 01:43:42;;;;;;;6.15;2.00;;;;;;;6.40;63.52;94167.41;6245746;22;20474;-83
2022/04/03 01:46:07;;;;;;;7.90;1.70;;;;;;;6.23;61.18;94144.06;6243904;23;20012;-84
2022/04/03 01:48:33;;;;;;;6.72;1.70;;;;;;;5.87;63.05;94076.84;6243682;23;20062;-83
2022/04/03 01:50:58;;;;;;;9.40;2.55;;;;;;;5.26;62.20;93998.19;6243279;22;20344;-83
2022/04/03 01:53:25;;;;;;;9.30;1.50;;;;;;;5.77;63.05;94088.97;6245883;22;20011;-83
2022/04/03 01:56:03;;;;;;;5.95;1.65;;;;;;;6.33;64.65;94148.50;6243549;23;20011;-82
2022/04/03 01:58:29;;;;;;;3.55;1.60;;;;;;;6.47;62.34;94145.00;6245397;22;20004;-83
2022/04/03 02:00:55;;;;;;;9.18;1.50;;;;;;;5.89;62.60;94009.72;6245765;22;20107;-83
2022/04/03 02:03:20;;;;;;;4.13;1.30;;;;;;;6.37;61.54;94063.41;6243705;23;20046;-83
2022/04/03 02:05:46;;;;;;;3.30;1.40;;;;;;;6.60;61.71;94106.72;6243245;23;20046;-82
2022/04/03 02:08:12;;;;;;;8.30;1.65;;;;;;;6.28;63.62;94040.56;6245204;22;20008;-82
2022/04/03 02:10:38;;;;;;;6.88;1.95;;;;;;;6.59;62.37;94107.75;6245216;22;20019;-82
2022/04/03 02:13:04;;;;;;;7.45;2.03;;;;;;;6.26;62.72;94021.59;6242840;23;20008;-81
2022/04/03 02:15:30;;;;;;;7.90;1.88;;;;;;;6.75;62.02;94118.97;6243464;23;20112;-81
2022/04/03 02:17:55;;;;;;;8.40;1.90;;;;;;;6.60;63.83;94085.63;6243214;23;20016;-81
2022/04/03 02:20:21;;;;;;;4.72;1.52;;;;;;;6.27;62.75;94023.97;6243006;23;20000;-83
2022/04/03 02:22:46;;;;;;;9.50;2.55;;;;;;;6.18;63.73;94028.25;6246255;22;20011;-82
2022/04/03 02:25:13;;;;;;;7.05;1.73;;;;;;;6.88;64.71;94100.69;6243158;22;20449;-82
2022/04/03 02:27:43;;;;;;;5.90;1.65;;;;;;;6.57;63.68;94057.19;6245750;22;20008;-83
2022/04/03 02:30:09;;;;;;;5.85;1.70;;;;;;;6.86;62.98;94080.97;6244672;22;20019;-83
2022/04/03 02:32:39;;;;;;;4.00;1.50;;;;;;;6.66;63.38;94047.63;6243269;23;20016;-83
2022/04/03 02:35:06;;;;;;;7.18;2.15;;;;;;;6.36;62.76;93992.56;6245429;23;20004;-83
2022/04/03 02:37:35;;;;;;;4.18;1.70;;;;;;;6.42;65.05;94020.44;6245451;23;20075;-83
2022/04/03 02:40:01;;;;;;;4.95;1.50;;;;;;;6.84;62.64;94088.34;6245613;22;20004;-82
2022/04/03 02:42:26;;;;;;;5.85;1.48;;;;;;;6.55;60.35;94075.94;6245510;22;20004;-83
2022/04/03 02:44:52;;;;;;;4.95;1.60;;;;;;;5.69;63.24;93946.69;6243475;23;20119;-82
2022/04/03 02:47:18;;;;;;;6.05;2.13;;;;;;;5.98;63.07;94023.91;6245689;23;20004;-82
2022/04/03 02:49:44;;;;;;;7.47;1.65;;;;;;;6.84;63.54;94144.47;6243981;23;20019;-82
2022/04/03 02:52:09;;;;;;;5.60;1.88;;;;;;;6.18;65.27;94029.03;6245095;23;20008;-82
2022/04/03 02:54:35;;;;;;;12.63;2.97;;;;;;;6.18;63.12;94041.41;6243673;23;20087;-82
2022/04/03 02:57:01;;;;;;;6.97;1.50;;;;;;;6.31;65.12;94108.47;6244162;23;20110;-83
2022/04/03 02:59:27;;;;;;;5.20;1.30;;;;;;;5.86;64.18;94009.47;6245987;22;20003;-83
2022/04/03 03:01:52;;;;;;;5.88;1.55;;;;;;;6.65;64.32;94148.03;6244359;23;20479;-83
2022/04/03 03:04:18;;;;;;;10.35;2.83;;;;;;;6.56;66.53;94088.00;6244866;23;20011;-82
2022/04/03 03:06:43;;;;;;;6.85;1.80;;;;;;;6.43;65.71;94086.00;6244887;23;20083;-82
2022/04/03 03:09:09;;;;;;;7.63;1.98;;;;;;;6.63;65.28;94092.22;6245423;23;20008;-82
2022/04/03 03:11:34;;;;;;;3.35;1.48;;;;;;;7.03;63.46;94147.22;6247168;22;20015;-82
2022/04/03 03:14:00;;;;;;;9.52;1.83;;;;;;;6.44;63.74;94055.19;6246440;23;20471;-82
2022/04/03 03:16:25;;;;;;;4.15;1.73;;;;;;;6.77;63.50;94114.22;6246645;22;20008;-84
2022/04/03 03:18:51;;;;;;;6.72;1.90;;;;;;;6.48;64.35;94075.47;6243223;23;20391;-83
2022/04/03 03:21:16;;;;;;;6.53;1.95;;;;;;;6.68;64.56;94147.50;6241977;23;20034;-83
2022/04/03 03:23:42;;;;;;;7.05;2.20;;;;;;;6.07;65.34;94079.38;6242468;23;20340;-83
2022/04/03 03:26:08;;;;;;;4.60;1.80;;;;;;;6.27;65.27;94113.50;6248724;23;20424;-83
2022/04/03 03:28:34;;;;;;;11.57;1.80;;;;;;;6.16;65.30;94081.19;6244044;23;20018;-83
2022/04/03 03:30:59;;;;;;;5.07;1.83;;;;;;;6.85;65.16;94159.25;6245872;22;20036;-84
2022/04/03 03:33:25;;;;;;;5.25;1.80;;;;;;;6.27;65.79;94049.50;6243470;23;20041;-83
2022/04/03 03:35:50;;;;;;;8.05;1.98;;;;;;;6.73;65.75;94095.53;6244278;23;20016;-84
2022/04/03 03:38:16;;;;;;;4.40;1.65;;;;;;;6.58;63.81;94085.13;6243504;23;20436;-83
2022/04/03 03:40:41;;;;;;;14.27;2.40;;;;;;;7.20;63.77;94171.34;6243477;23;20521;-83
2022/04/03 03:43:09;;;;;;;8.05;1.88;;;;;;;5.89;63.09;93987.91;6242033;23;20008;-83
2022/04/03 03:45:35;;;;;;;8.48;1.83;;;;;;;6.52;64.27;94084.38;6242918;23;20020;-83
2022/04/03 03:48:00;;;;;;;4.25;1.67;;;;;;;7.28;65.11;94197.13;6242817;23;20016;-83
2022/04/03 03:50:26;;;;;;;6.35;1.60;;;;;;;6.48;64.24;94030.69;6242356;23;20371;-83
2022/04/03 03:52:51;;;;;;;7.60;1.65;;;;;;;6.18;63.42;94004.53;6241867;23;20445;-83
2022/04/03 03:55:17;;;;;;;5.25;2.00;;;;;;;6.69;63.50;94076.09;6243998;22;20079;-84
2022/04/03 03:57:47;;;;;;;5.03;2.10;;;;;;;6.96;62.61;94130.94;6242498;23;20024;-83
2022/04/03 04:00:13;;;;;;;5.32;1.80;;;;;;;6.62;61.82;94106.44;6242374;23;20015;-83
2022/04/03 04:02:39;;;;;;;6.50;1.85;;;;;;;6.15;62.96;94026.16;6241618;23;20012;-82
2022/04/03 04:05:06;;;;;;;7.53;1.48;;;;;;;6.55;61.73;94104.91;6243948;22;20040;-83
2022/04/03 04:07:41;;;;;;;6.22;1.75;;;;;;;6.70;62.28;94164.59;6243790;22;20012;-83
2022/04/03 04:10:08;;;;;;;4.15;1.40;;;;;;;6.12;62.93;94084.63;6244460;22;20092;-83
2022/04/03 04:12:34;;;;;;;5.05;1.67;;;;;;;6.28;62.51;94128.22;6242182;23;20011;-83
2022/04/03 04:14:59;;;;;;;5.10;1.70;;;;;;;6.55;63.12;94165.50;6244750;22;20031;-82
2022/04/03 04:17:25;;;;;;;3.85;1.85;;;;;;;5.29;61.44;93977.41;6242241;23;20014;-82
2022/04/03 04:19:51;;;;;;;5.78;1.67;;;;;;;6.91;62.67;94239.84;6242842;23;20011;-82
2022/04/03 04:22:16;;;;;;;6.88;1.88;;;;;;;6.97;61.80;94227.41;6243445;23;20008;-82
2022/04/03 04:24:42;;;;;;;10.85;1.80;;;;;;;6.94;60.89;94249.81;6243610;23;20074;-82
2022/04/03 04:27:08;;;;;;;2.80;1.70;;;;;;;6.59;62.44;94202.59;6245881;22;20016;-83
2022/04/03 04:29:33;;;;;;;7.95;3.03;;;;;;;6.26;61.85;94159.31;6245628;23;20012;-82
2022/04/03 04:31:58;;;;;;;7.55;2.05;;;;;;;6.51;63.40;94219.75;6245805;23;20197;-82
2022/04/03 04:34:24;;;;;;;17.02;3.30;;;;;;;6.63;63.81;94261.59;6246274;22;20012;-82
2022/04/03 04:36:49;;;;;;;6.68;2.55;;;;;;;5.83;63.69;94182.59;6244156;23;20016;-82
2022/04/03 04:39:15;;;;;;;5.57;2.67;;;;;;;6.20;64.77;94271.75;6244230;23;20085;-82
2022/04/03 04:41:40;;;;;;;3.72;1.95;;;;;;;6.10;64.63;94260.47;6243793;23;20014;-82
2022/04/03 04:44:06;;;;;;;7.30;2.38;;;;;;;6.05;65.03;94250.75;6243013;23;20474;-82
2022/04/03 04:46:32;;;;;;;5.43;1.80;;;;;;;5.61;62.91;94168.19;6243410;23;20012;-82
2022/04/03 04:48:57;;;;;;;9.30;1.95;;;;;;;5.80;63.57;94182.34;6245467;22;20031;-82
2022/04/03 04:51:23;;;;;;;7.03;1.98;;;;;;;6.36;63.82;94256.69;6244094;23;20340;-82
2022/04/03 04:53:48;;;;;;;6.10;1.85;;;;;;;6.68;63.87;94258.16;6244012;23;20011;-82
2022/04/03 04:56:14;;;;;;;5.15;1.92;;;;;;;6.87;64.67;94257.25;6244179;23;20248;-82
2022/04/03 04:58:40;;;;;;;9.00;1.63;;;;;;;6.72;62.21;94251.25;6244382;23;20100;-82
2022/04/03 05:01:06;;;;;;;9.35;2.65;;;;;;;6.33;63.34;94212.47;6245528;22;20375;-82
2022/04/03 05:03:31;;;;;;;7.10;1.80;;;;;;;6.37;61.53;94212.72;6246239;22;20046;-82
2022/04/03 05:05:57;;;;;;;10.68;2.20;;;;;;;5.92;63.40;94164.47;6243621;23;20015;-82
2022/04/03 05:08:23;;;;;;;11.52;1.52;;;;;;;6.12;62.98;94184.63;6245787;22;20058;-82
2022/04/03 05:10:50;;;;;;;2.80;1.15;;;;;;;5.73;61.33;94145.00;6246434;22;20012;-83
2022/04/03 05:13:15;;;;;;;3.25;1.35;;;;;;;5.52;61.82;94128.50;6243379;23;20012;-82
2022/04/03 05:15:41;;;;;;;2.83;1.63;;;;;;;5.54;63.03;94147.44;6245916;22;20062;-82
2022/04/03 05:18:07;;;;;;;5.05;1.38;;;;;;;6.45;62.35;94285.91;6243843;23;20015;-82
2022/04/03 05:20:33;;;;;;;3.80;1.48;;;;;;;6.29;62.44;94253.56;6242752;23;20012;-83
2022/04/03 05:22:58;;;;;;;4.47;1.50;;;;;;;5.92;63.00;94224.97;6243690;23;20040;-82
2022/04/03 05:25:24;;;;;;;6.10;1.60;;;;;;;5.87;62.38;94224.97;6243628;23;20004;-83
2022/04/03 05:27:49;;;;;;;4.13;1.67;;;;;;;5.94;62.50;94236.03;6244980;22;20032;-82
2022/04/03 05:30:15;;;;;;;7.30;1.67;;;;;;;5.87;61.98;94227.59;6244383;22;20012;-83
2022/04/03 05:32:41;;;;;;;4.82;2.33;;;;;;;6.41;62.25;94301.44;6241859;23;20008;-82
2022/04/03 05:35:08;;;;;;;4.70;1.60;;;;;;;6.24;61.40;94292.28;6242763;23;20012;-83
2022/04/03 05:37:34;;;;;;;6.75;1.67;;;;;;;6.18;62.56;94286.22;6243436;23;20004;-83
2022/04/03 05:39:59;;;;;;;6.43;1.27;;;;;;;6.40;62.06;94312.28;6242953;23;20436;-82
2022/04/03 05:42:25;;;;;;;10.73;2.10;;;;;;;5.60;62.65;94201.59;6244361;22;20467;-82
2022/04/03 05:44:50;;;;;;;7.28;1.83;;;;;;;6.10;61.67;94261.25;6243548;23;20046;-82
2022/04/03 05:47:17;;;;;;;3.50;1.30;;;;;;;6.31;62.38;94277.78;6242222;23;20087;-81
2022/04/03 05:49:42;;;;;;;4.90;1.40;;;;;;;5.80;60.82;94187.59;6243111;22;20030;-82
2022/04/03 05:52:08;;;;;;;4.15;1.50;;;;;;;6.52;58.55;94310.91;6244820;22;20036;-81
2022/04/03 05:54:33;;;;;;;5.53;1.23;;;;;;;5.61;59.54;94160.31;6242617;22;20011;-82
2022/04/03 05:56:59;;;;;;;5.25;0.90;;;;;;;6.34;55.01;94300.16;6244597;22;20386;-81
2022/04/03 05:59:25;;;;;;;5.43;0.77;;;;;;;5.76;53.70;94194.47;6242925;23;20008;-82
2022/04/03 06:01:50;;;;;;;5.07;0.85;;;;;;;6.38;55.98;94262.50;6242204;23;20518;-83
2022/04/03 06:04:16;;;;;;;1.98;1.05;;;;;;;6.54;53.87;94257.94;6242509;23;20007;-81
2022/04/03 06:06:42;;;;;;;1.45;0.80;;;;;;;6.38;53.26;94261.69;6242033;23;20008;-82
2022/04/03 06:09:08;;;;;;;4.32;0.90;;;;;;;6.42;53.20;94260.09;6242106;23;20012;-82
2022/04/03 06:11:34;;;;;;;6.47;1.00;;;;;;;6.23;52.13;94241.47;6241778;23;20082;-82
2022/04/03 06:14:00;;;;;;;5.05;1.75;;;;;;;6.64;52.68;94336.94;6244474;22;20011;-82
2022/04/03 06:16:26;;;;;;;1.70;0.70;;;;;;;6.88;53.97;94335.25;6243035;23;20412;-82
2022/04/03 06:18:53;;;;;;;4.50;1.00;;;;;;;6.68;52.53;94324.03;6242080;23;20008;-81
2022/04/03 06:21:19;;;;;;;1.33;0.70;;;;;;;6.92;52.64;94362.66;6241730;23;20008;-83
2022/04/03 06:23:44;;;;;;;8.85;1.10;;;;;;;6.11;53.20;94243.59;6241864;23;20455;-82
2022/04/03 06:26:10;;;;;;;7.18;1.17;;;;;;;6.15;53.72;94232.28;6244285;22;20009;-82
2022/04/03 06:28:36;;;;;;;1.33;0.90;;;;;;;6.36;52.87;94256.69;6244064;22;20031;-82
2022/04/03 06:31:02;;;;;;;2.42;1.33;;;;;;;6.66;52.16;94332.19;6241201;23;20036;-82
2022/04/03 06:33:28;;;;;;;2.25;1.08;;;;;;;6.59;53.08;94307.97;6243375;22;20069;-82
2022/04/03 06:35:54;;;;;;;4.25;1.13;;;;;;;6.30;53.04;94267.53;6244541;22;20268;-83
2022/04/03 06:38:19;;;;;;;1.58;1.00;;;;;;;6.20;53.33;94223.56;6243209;22;20004;-82
2022/04/03 06:40:50;;;;;;;5.10;1.02;;;;;;;6.37;53.68;94245.13;6241641;23;20066;-82
2022/04/03 06:43:18;;;;;;;2.63;0.93;;;;;;;6.38;53.17;94293.31;6241841;23;20047;-83
2022/04/03 06:45:44;;;;;;;3.03;0.90;;;;;;;6.90;53.00;94382.44;6243683;22;20333;-83
2022/04/03 06:48:10;;;;;;;3.85;0.98;;;;;;;6.83;53.09;94381.94;6241661;23;20016;-82
2022/04/03 06:50:35;;;;;;;1.38;0.90;;;;;;;6.53;53.57;94353.84;6242311;23;20035;-82
2022/04/03 06:53:00;;;;;;;2.85;0.90;;;;;;;6.65;54.06;94356.94;6241409;23;20012;-82
2022/04/03 06:55:26;;;;;;;4.70;0.90;;;;;;;5.23;53.33;94111.75;6243495;23;20418;-81
2022/04/03 06:57:51;;;;;;;2.35;0.90;;;;;;;7.00;54.64;94394.78;6243666;22;20895;-82
2022/04/03 07:00:17;;;;;;;2.15;0.90;;;;;;;6.19;54.15;94270.19;6241027;23;20008;-81
2022/04/03 07:02:43;;;;;;;4.97;0.88;;;;;;;6.95;54.22;94356.06;6242555;22;20008;-82
2022/04/03 07:05:09;;;;;;;1.65;0.90;;;;;;;6.48;53.55;94315.16;6242989;22;20078;-82
2022/04/03 07:07:35;;;;;;;1.48;0.95;;;;;;;7.09;55.11;94395.81;6243057;22;20031;-82
2022/04/03 07:10:00;;;;;;;7.28;1.23;;;;;;;6.75;53.83;94369.31;6242302;23;20016;-82
2022/04/03 07:12:26;;;;;;;2.75;1.05;;;;;;;6.60;53.93;94317.47;6241009;23;20003;-82
2022/04/03 07:14:51;;;;;;;7.53;1.40;;;;;;;6.85;54.05;94366.66;6243046;22;20007;-82
2022/04/03 07:17:17;;;;;;;5.25;1.20;;;;;;;6.45;53.53;94343.84;6241453;23;20366;-82
2022/04/03 07:19:44;;;;;;;2.83;1.30;;;;;;;7.10;53.89;94432.44;6242188;23;20008;-82
2022/04/03 07:22:09;;;;;;;4.63;1.10;;;;;;;6.34;54.80;94305.41;6241640;23;20097;-82
2022/04/03 07:24:35;;;;;;;7.40;1.25;;;;;;;7.13;55.03;94394.22;6242231;23;20074;-82
2022/04/03 07:27:00;;;;;;;2.40;0.90;;;;;;;6.81;55.14;94402.50;6241020;22;20087;-82
2022/04/03 07:29:26;;;;;;;5.90;1.33;;;;;;;6.55;54.76;94373.59;6247577;23;20062;-82
2022/04/03 07:31:52;;;;;;;5.18;1.50;;;;;;;6.73;55.60;94382.75;6250348;23;20008;-82
2022/04/03 07:34:18;;;;;;;4.60;2.10;;;;;;;7.23;55.14;94452.97;6251591;23;20063;-81
2022/04/03 07:36:43;;;;;;;5.15;1.33;;;;;;;7.33;55.02;94458.19;6251650;22;20031;-81
2022/04/03 07:39:10;;;;;;;3.63;1.40;;;;;;;6.20;54.92;94273.59;6251523;23;20015;-83
2022/04/03 07:41:39;;;;;;;2.55;1.00;;;;;;;7.30;54.99;94466.66;6242997;23;20130;-82
2022/04/03 07:44:05;;;;;;;5.18;0.80;;;;;;;6.75;54.42;94345.59;6242852;23;20016;-82
2022/04/03 07:46:31;;;;;;;3.45;1.10;;;;;;;7.49;53.71;94439.66;6244304;22;20004;-82
2022/04/03 07:48:56;;;;;;;3.03;0.70;;;;;;;7.14;53.25;94369.41;6244197;22;20004;-82
2022/04/03 07:51:23;;;;;;;1.83;0.70;;;;;;;7.00;53.28;94358.69;6241923;23;20023;-82
2022/04/03 07:53:50;;;;;;;1.70;1.00;;;;;;;7.74;53.48;94458.00;6243382;22;20027;-82
2022/04/03 07:56:16;;;;;;;2.45;0.98;;;;;;;7.53;53.66;94424.88;6243436;23;20346;-82
2022/04/03 07:58:42;;;;;;;2.28;1.00;;;;;;;6.69;52.55;94307.94;6242640;23;20036;-82
2022/04/03 08:01:08;;;;;;;2.55;1.00;;;;;;;7.06;51.91;94354.16;6242889;22;20015;-82
2022/04/03 08:03:33;;;;;;;1.38;0.90;;;;;;;7.01;52.64;94323.34;6245635;22;20008;-83
2022/04/03 08:05:59;;;;;;;2.85;0.90;;;;;;;6.67;52.30;94307.41;6244198;23;20506;-83
2022/04/03 08:08:24;;;;;;;1.95;0.73;;;;;;;7.58;52.47;94472.34;6245308;22;20359;-82
2022/04/03 08:10:50;;;;;;;6.20;1.08;;;;;;;6.84;52.98;94341.34;6245643;22;20436;-82
2022/04/03 08:13:16;;;;;;;10.18;1.35;;;;;;;7.15;52.67;94382.34;6243930;23;20012;-82
2022/04/03 08:15:42;;;;;;;6.65;1.00;;;;;;;6.83;52.41;94318.69;6244742;23;20409;-82
2022/04/03 08:18:07;;;;;;;3.22;1.10;;;;;;;6.95;51.95;94327.06;6246219;22;20004;-82
2022/04/03 08:20:33;;;;;;;2.78;1.00;;;;;;;7.23;52.00;94402.88;6243164;23;20012;-82
2022/04/03 08:23:03;;;;;;;5.47;0.93;;;;;;;7.40;50.85;94452.63;6245009;22;20012;-83
2022/04/03 08:25:30;;;;;;;2.72;0.57;;;;;;;7.23;50.50;94387.06;6245396;22;20086;-82
2022/04/03 08:27:56;;;;;;;2.22;0.80;;;;;;;7.65;50.08;94436.69;6242812;23;20232;-83
2022/04/03 08:30:33;;;;;;;7.40;1.10;;;;;;;7.90;49.81;94430.47;6243452;23;20016;-82
2022/04/03 08:33:00;;;;;;;5.45;0.75;;;;;;;7.72;48.35;94421.31;6244147;23;20073;-82
2022/04/03 08:35:28;;;;;;;4.05;0.85;;;;;;;8.12;48.57;94502.13;6243367;23;20016;-83
2022/04/03 08:37:54;;;;;;;2.90;0.80;;;;;;;8.19;48.99;94474.63;6243097;23;20007;-83
2022/04/03 08:40:22;;;;;;;3.90;1.15;;;;;;;8.26;51.14;94486.47;6242789;23;20004;-83
2022/04/03 08:42:51;;;;;;;1.00;0.70;;;;;;;8.37;49.58;94481.94;6243201;23;20004;-83
2022/04/03 08:45:17;;;;;;;2.78;0.80;;;;;;;8.44;47.93;94477.13;6244777;22;20032;-83
2022/04/03 08:47:47;;;;;;;3.75;0.98;;;;;;;8.37;48.21;94450.22;6242537;23;20254;-83
2022/04/03 08:50:14;;;;;;;2.88;0.85;;;;;;;7.65;47.52;94328.47;6243119;23;20026;-83
2022/04/03 08:52:48;;;;;;;4.63;1.00;;;;;;;8.66;48.73;94488.03;6241741;23;20008;-82
2022/04/03 08:55:15;;;;;;;2.25;0.60;;;;;;;7.64;51.35;94408.72;6243425;23;20008;-83
2022/04/03 08:57:41;;;;;;;1.40;0.45;;;;;;;7.81;50.53;94460.34;6245514;22;20075;-83
2022/04/03 09:00:07;;;;;;;2.65;0.80;;;;;;;7.92;50.53;94440.75;6243160;23;20000;-83
2022/04/03 09:02:33;;;;;;;0.98;0.47;;;;;;;8.18;48.97;94486.25;6243259;23;20008;-82
2022/04/03 09:04:59;;;;;;;1.75;0.57;;;;;;;8.19;48.53;94472.78;6245918;22;20011;-83
2022/04/03 09:07:25;;;;;;;2.05;0.70;;;;;;;8.12;47.21;94456.44;6246031;22;20823;-82
2022/04/03 09:10:06;;;;;;;5.30;1.20;;;;;;;8.76;48.23;94495.09;6247008;22;20122;-83
2022/04/03 09:12:31;;;;;;;1.35;0.85;;;;;;;8.20;46.89;94396.97;6243191;23;20011;-82
2022/04/03 09:14:58;;;;;;;3.65;0.90;;;;;;;8.92;47.96;94480.66;6244915;22;20030;-82
2022/04/03 09:17:44;;;;;;;1.95;0.90;;;;;;;8.38;48.00;94360.13;6245162;22;20004;-83
2022/04/03 09:20:12;;;;;;;1.75;0.80;;;;;;;8.23;45.66;94360.22;6243449;23;20007;-83
2022/04/03 09:22:40;;;;;;;1.63;0.70;;;;;;;9.29;46.07;94501.97;6244431;22;20027;-82
2022/04/03 09:25:07;;;;;;;2.95;1.00;;;;;;;8.93;47.54;94437.25;6243195;23;20031;-83
2022/04/03 09:27:45;;;;;;;5.47;1.77;;;;;;;9.00;51.11;94503.81;6244714;22;20435;-83
2022/04/03 09:30:11;;;;;;;7.25;1.60;;;;;;;8.23;53.41;94383.22;6244699;23;20047;-82
2022/04/03 09:32:55;;;;;;;3.83;1.63;;;;;;;8.99;57.59;94518.16;6245142;22;20444;-83
2022/04/03 09:35:26;;;;;;;6.03;2.17;;;;;;;7.73;58.04;94446.66;6245380;22;20071;-82
2022/04/03 09:38:15;;;;;;;8.82;3.15;;;;;;;8.03;62.13;94537.31;6244285;23;20415;-82
2022/04/03 09:40:42;;;;;;;9.73;2.20;;;;;;;7.92;60.95;94533.94;6243542;23;20040;-83
2022/04/03 09:43:21;;;;;;;12.88;2.65;;;;;;;7.71;65.03;94546.44;6243916;22;20008;-83
2022/04/03 09:45:52;;;;;;;4.40;1.80;;;;;;;7.58;65.09;94520.63;6243828;23;20020;-83
2022/04/03 09:48:22;;;;;;;3.17;1.57;;;;;;;7.52;62.43;94539.41;6246103;22;20067;-83
2022/04/03 09:50:59;;;;;;;3.55;1.92;;;;;;;6.68;64.83;94401.22;6244657;23;20087;-83
2022/04/03 09:53:26;;;;;;;10.27;1.98;;;;;;;7.04;66.74;94422.19;6244667;23;20011;-83
2022/04/03 09:55:51;;;;;;;7.32;2.15;;;;;;;7.52;61.66;94508.53;6244760;23;20032;-83
2022/04/03 09:58:17;;;;;;;4.05;1.02;;;;;;;6.91;57.93;94398.00;6246352;22;20086;-83
2022/04/03 10:00:42;;;;;;;5.95;1.15;;;;;;;7.36;58.67;94456.88;6245937;22;20004;-83
2022/04/03 10:03:13;;;;;;;3.95;1.40;;;;;;;7.29;56.44;94440.56;6246316;23;20012;-83
2022/04/03 10:05:39;;;;;;;4.45;1.45;;;;;;;7.92;61.00;94533.94;6244759;23;20004;-82
2022/04/03 10:08:06;;;;;;;3.05;1.23;;;;;;;7.86;59.71;94482.22;6244482;23;20004;-82
2022/04/03 10:10:34;;;;;;;2.80;0.70;;;;;;;7.33;52.81;94413.34;6243880;23;20012;-83
2022/04/03 10:13:01;;;;;;;5.97;2.00;;;;;;;8.00;58.24;94487.69;6244162;23;20628;-82
2022/04/03 10:15:27;;;;;;;2.25;1.48;;;;;;;8.30;59.99;94531.63;6245803;22;20015;-83
2022/04/03 10:17:54;;;;;;;4.68;1.80;;;;;;;8.00;58.56;94512.25;6244640;23;20008;-83
2022/04/03 10:20:25;;;;;;;6.72;1.60;;;;;;;7.97;56.19;94501.44;6243063;23;20008;-82
2022/04/03 10:22:54;;;;;;;5.82;1.70;;;;;;;8.13;57.88;94489.72;6245305;22;20511;-83
2022/04/03 10:25:24;;;;;;;4.53;1.50;;;;;;;7.69;54.94;94421.09;6244125;23;20008;-83
2022/04/03 10:27:51;;;;;;;3.33;1.85;;;;;;;8.59;55.47;94543.06;6244061;23;20038;-83
2022/04/03 10:30:17;;;;;;;2.88;1.30;;;;;;;8.59;56.66;94492.84;6244369;23;20039;-82
2022/04/03 10:32:59;;;;;;;3.90;1.83;;;;;;;8.92;54.89;94466.66;6244299;23;20484;-82
2022/04/03 10:35:25;;;;;;;4.35;1.63;;;;;;;9.83;55.75;94537.09;6245726;23;20435;-82
2022/04/03 10:38:03;;;;;;;4.80;1.83;;;;;;;9.74;53.28;94550.16;6245770;22;20206;-82
2022/04/03 10:40:33;;;;;;;2.08;1.40;;;;;;;9.28;54.57;94529.50;6243474;23;20009;-83
2022/04/03 10:43:03;;;;;;;6.60;1.83;;;;;;;8.58;53.83;94440.25;6242757;22;20451;-82
2022/04/03 10:45:33;;;;;;;4.50;2.10;;;;;;;9.80;55.90;94548.22;6243830;23;20555;-82
2022/04/03 10:48:28;;;;;;;3.35;1.77;;;;;;;10.14;56.10;94521.59;6242932;23;20042;-82
2022/04/03 10:51:10;;;;;;;7.13;2.20;;;;;;;10.88;60.52;94539.31;6243005;22;20020;-82
2022/04/03 10:53:41;;;;;;;4.97;1.58;;;;;;;10.26;50.44;94549.25;6243399;23;20016;-82
2022/04/03 10:56:21;;;;;;;4.63;1.70;;;;;;;9.68;52.86;94535.41;6241928;23;20004;-82
2022/04/03 10:58:49;;;;;;;5.23;1.73;;;;;;;8.96;52.13;94502.03;6242912;23;20363;-82
2022/04/03 11:01:31;;;;;;;5.57;2.15;;;;;;;8.36;53.35;94486.41;6244666;23;20004;-83
2022/04/03 11:04:07;;;;;;;4.35;1.80;;;;;;;7.13;53.34;94302.72;6242868;23;20011;-82
2022/04/03 11:06:34;;;;;;;4.22;1.77;;;;;;;8.57;55.01;94550.47;6245173;22;20008;-82
2022/04/03 11:09:07;;;;;;;2.70;1.58;;;;;;;8.80;56.08;94565.63;6243231;22;20004;-83
2022/04/03 11:11:48;;;;;;;3.42;2.20;;;;;;;8.97;54.08;94570.53;6244186;23;20102;-82
2022/04/03 11:14:58;;;;;;;3.25;2.45;;;;;;;8.89;53.54;94566.63;6244344;22;20088;-82
2022/04/03 11:17:52;;;;;;;8.00;2.50;;;;;;;9.15;55.70;94545.25;6243134;23;20012;-83
2022/04/03 11:20:43;;;;;;;4.70;2.00;;;;;;;8.95;54.35;94468.72;6242949;23;20434;-81
2022/04/03 11:23:14;;;;;;;6.53;2.30;;;;;;;9.77;56.04;94517.78;6243238;22;20070;-82
2022/04/03 11:25:41;;;;;;;8.57;2.15;;;;;;;9.23;51.49;94433.50;6244358;22;20008;-83
2022/04/03 11:28:07;;;;;;;3.67;2.17;;;;;;;9.37;50.39;94486.53;6244298;23;20008;-83
2022/04/03 11:30:34;;;;;;;6.80;2.47;;;;;;;9.55;50.87;94544.00;6241481;23;20008;-82
2022/04/03 11:33:00;;;;;;;3.47;2.15;;;;;;;8.95;50.70;94519.75;6242927;22;20015;-82
2022/04/03 11:35:38;;;;;;;5.18;2.15;;;;;;;9.45;52.13;94560.81;6243565;22;20018;-82
2022/04/03 11:38:04;;;;;;;6.93;2.30;;;;;;;8.51;52.73;94414.16;6244211;22;20008;-82
2022/04/03 11:40:30;;;;;;;4.43;2.35;;;;;;;8.52;51.77;94413.09;6242477;23;20032;-82
2022/04/03 11:43:10;;;;;;;4.15;2.60;;;;;;;9.10;51.88;94513.53;6242262;22;20012;-83